Sunday, April 22, 2018, 9:37 PM EDT
Back to Local

KBUF, Greater Buffalo International Airport

Location: Buffalo, NY, United States Lat: 42.933
Local Time: 9:37 PM EDT ( 1:37 GMT) Lon: -78.733
Time Zone: US/Eastern Elev: 725 ft

Show me the last for .
Show Decoded

2018-04-22 20:54 METAR KBUF 230054Z 05005KT 10SM FEW250 11/M06 A3038 RMK AO2 SLP293 T01061056 =
2018-04-22 19:54 METAR KBUF 222354Z 04007KT 10SM FEW250 13/M06 A3037 RMK AO2 SLP289 T01331061
                 10167 20133 53002 =
2018-04-22 18:54 METAR KBUF 222254Z 03006KT 10SM FEW250 15/M07 A3036 RMK AO2 SLP286 T01501067 =
2018-04-22 17:54 METAR KBUF 222154Z 05008KT 10SM FEW250 16/M06 A3036 RMK AO2 SLP286 T01611061 =
2018-04-22 16:54 METAR KBUF 222054Z 07007KT 10SM CLR 16/M04 A3037 RMK AO2 SLP287 T01611044 56014
                 =
2018-04-22 15:54 METAR KBUF 221954Z 07008KT 10SM CLR 16/M04 A3038 RMK AO2 SLP291 T01611039 =
2018-04-22 14:54 METAR KBUF 221854Z 03009KT 10SM CLR 16/M05 A3039 RMK AO2 SLP296 T01561050 =
2018-04-22 13:54 METAR KBUF 221754Z COR 00000KT 10SM FEW250 16/M07 A3041 RMK AO2 SLP302 T01561067
                 10156 20022 58015 =
2018-04-22 12:54 METAR KBUF 221654Z 02003KT 10SM FEW230 14/M07 A3043 RMK AO2 SLP308 T01441072 =
2018-04-22 11:54 METAR KBUF 221554Z 07004KT 10SM FEW220 14/M05 A3044 RMK AO2 SLP312 T01391050 =
2018-04-22 10:54 METAR KBUF 221454Z 00000KT 10SM FEW250 12/M06 A3045 RMK AO2 SLP317 T01221061
                 50006 =
2018-04-22 09:54 METAR KBUF 221354Z 00000KT 10SM FEW230 09/M04 A3045 RMK AO2 SLP319 T00941039 =
2018-04-22 08:54 METAR KBUF 221254Z 00000KT 10SM FEW200 07/M02 A3045 RMK AO2 SLP317 T00671017 =
2018-04-22 07:54 METAR KBUF 221154Z 00000KT 10SM CLR 02/M02 A3043 RMK AO2 SLP312 T00221022 10022
                 21006 53010 =
2018-04-22 06:54 METAR KBUF 221054Z 14004KT 10SM CLR 00/M03 A3042 RMK AO2 SLP308 T00001033 =
2018-04-22 05:54 METAR KBUF 220954Z 16004KT 10SM CLR 00/M04 A3041 RMK AO2 SLP304 T00001039 =
2018-04-22 04:54 METAR KBUF 220854Z 14004KT 10SM CLR 00/M03 A3040 RMK AO2 SLP302 T00001033 55003
                 =
2018-04-22 03:54 METAR KBUF 220754Z 14003KT 10SM CLR 01/M03 A3040 RMK AO2 SLP300 T00061033 =
2018-04-22 02:54 METAR KBUF 220654Z 16004KT 10SM CLR 01/M04 A3041 RMK AO2 SLP303 T00111039 =
2018-04-22 01:54 METAR KBUF 220554Z 18004KT 10SM FEW280 02/M03 A3041 RMK AO2 SLP305 T00171028
                 10072 20011 53000 =
2018-04-22 00:54 METAR KBUF 220454Z 19005KT 10SM FEW280 01/M02 A3041 RMK AO2 SLP305 T00111022
                 401001028 =
2018-04-21 23:54 METAR KBUF 220354Z 19006KT 10SM FEW280 02/M02 A3041 RMK AO2 SLP305 T00171022 =
2018-04-21 22:54 METAR KBUF 220254Z 20004KT 10SM BKN250 03/M03 A3041 RMK AO2 SLP306 T00281028
                 51007 =
2018-04-21 21:54 METAR KBUF 220154Z 20004KT 10SM BKN250 03/M03 A3041 RMK AO2 SLP306 T00331033 =

Support USWX by starting your Amazon purchase here.